createdAt,value
2022-11-13T00:00:56.200Z,80.02
2022-11-13T00:01:56.113Z,80.49
2022-11-13T00:02:56.115Z,80.49
2022-11-13T00:03:55.943Z,80.68
2022-11-13T00:04:55.861Z,80.58
2022-11-13T00:05:55.773Z,80.11
2022-11-13T00:06:59.091Z,80.30
2022-11-13T00:07:55.607Z,80.30
2022-11-13T00:08:55.516Z,80.06
2022-11-13T00:09:55.435Z,80.25
2022-11-13T00:10:55.343Z,79.87
2022-11-13T00:11:55.371Z,80.06
2022-11-13T00:12:55.174Z,80.06
2022-11-13T00:13:55.084Z,80.06
2022-11-13T00:14:55.003Z,79.39
2022-11-13T00:15:54.917Z,79.77
2022-11-13T00:16:54.832Z,79.39
2022-11-13T00:17:54.746Z,79.58
2022-11-13T00:18:54.660Z,79.49
2022-11-13T00:19:54.575Z,79.21
2022-11-13T00:20:54.492Z,79.21
2022-11-13T00:21:54.405Z,79.11
2022-11-13T00:22:54.319Z,78.54
2022-11-13T00:23:54.234Z,78.92
2022-11-13T00:24:54.349Z,78.64
2022-11-13T00:25:54.062Z,78.83
2022-11-13T00:26:53.979Z,78.83
2022-11-13T00:27:54.006Z,78.83
2022-11-13T00:28:53.819Z,78.50
2022-11-13T00:29:53.730Z,78.88
2022-11-13T00:30:53.888Z,78.79
2022-11-13T00:31:53.552Z,78.73
2022-11-13T00:32:53.470Z,78.79
2022-11-13T00:34:53.297Z,78.50
2022-11-13T00:35:53.210Z,78.59
2022-11-13T00:36:53.127Z,78.98
2022-11-13T00:37:53.042Z,78.88
2022-11-13T00:38:52.954Z,79.17
2022-11-13T00:39:57.046Z,79.26
2022-11-13T00:40:52.786Z,79.55
2022-11-13T00:41:52.699Z,79.36
2022-11-13T00:42:52.612Z,79.45
2022-11-13T00:43:52.649Z,79.45
2022-11-13T00:44:52.444Z,79.36
2022-11-13T00:45:52.359Z,79.64
2022-11-13T00:46:52.270Z,80.02
2022-11-13T00:47:52.192Z,80.02
2022-11-13T00:48:52.107Z,79.93
2022-11-13T00:49:52.018Z,79.74
2022-11-13T00:50:51.931Z,80.02
2022-11-13T00:51:51.846Z,80.40
2022-11-13T00:52:51.761Z,80.30
2022-11-13T00:53:51.676Z,80.68
2022-11-13T00:54:51.590Z,80.49
2022-11-13T00:55:51.511Z,80.30
2022-11-13T00:56:51.423Z,80.58
2022-11-13T00:57:51.334Z,80.58
2022-11-13T00:58:51.249Z,80.02
2022-11-13T00:59:51.279Z,80.58
2022-11-13T01:00:51.078Z,81.06
2022-11-13T01:01:51.046Z,80.96
2022-11-13T01:02:50.908Z,80.68
2022-11-13T01:03:50.826Z,80.68
2022-11-13T01:04:50.836Z,80.68
2022-11-13T01:05:50.653Z,80.87
2022-11-13T01:06:50.631Z,80.77
2022-11-13T01:07:50.482Z,80.68
2022-11-13T01:08:50.394Z,81.06
2022-11-13T01:09:50.312Z,80.68
2022-11-13T01:10:53.755Z,80.87
2022-11-13T01:11:50.140Z,80.96
2022-11-13T01:12:50.051Z,80.87
2022-11-13T01:13:49.967Z,80.30
2022-11-13T01:14:49.881Z,80.40
2022-11-13T01:15:49.908Z,80.21
2022-11-13T01:16:49.718Z,80.40
2022-11-13T01:17:49.627Z,80.58
2022-11-13T01:18:49.542Z,80.21
2022-11-13T01:19:49.456Z,80.02
2022-11-13T01:20:49.373Z,80.11
2022-11-13T01:21:49.284Z,79.93
2022-11-13T01:22:49.201Z,79.83
2022-11-13T01:23:49.113Z,79.83
2022-11-13T01:24:49.028Z,79.74
2022-11-13T01:25:48.943Z,79.36
2022-11-13T01:26:48.858Z,79.45
2022-11-13T01:27:48.776Z,79.36
2022-11-13T01:28:48.687Z,79.45
2022-11-13T01:29:48.604Z,79.26
2022-11-13T01:30:48.517Z,79.26
2022-11-13T01:31:48.549Z,78.69
2022-11-13T01:32:48.348Z,79.07
2022-11-13T01:33:48.262Z,78.79
2022-11-13T01:34:48.177Z,78.50
2022-11-13T01:35:48.091Z,78.69
2022-11-13T01:36:48.012Z,78.69
2022-11-13T01:37:47.973Z,78.69
2022-11-13T01:38:47.835Z,78.59
2022-11-13T01:39:47.750Z,78.79
2022-11-13T01:40:47.665Z,78.79
2022-11-13T01:41:47.585Z,78.69
2022-11-13T01:42:47.495Z,78.88
2022-11-13T01:43:47.411Z,78.31
2022-11-13T01:44:47.324Z,78.50
2022-11-13T01:45:47.388Z,78.13
2022-11-13T01:46:47.153Z,78.41
2022-11-13T01:47:47.191Z,78.41
2022-11-13T01:48:46.984Z,78.03
2022-11-13T01:49:46.897Z,77.94
2022-11-13T01:50:46.810Z,77.94
2022-11-13T01:51:46.728Z,78.03
2022-11-13T01:52:46.740Z,78.41
2022-11-13T01:53:46.554Z,78.31
2022-11-13T01:54:46.468Z,78.31
2022-11-13T01:55:46.382Z,78.46
2022-11-13T01:56:46.299Z,78.03
2022-11-13T01:57:46.211Z,78.03
2022-11-13T01:58:46.127Z,78.31
2022-11-13T01:59:46.042Z,78.27
2022-11-13T02:00:45.957Z,78.13
2022-11-13T02:01:45.926Z,78.22
2022-11-13T02:02:45.783Z,78.18
2022-11-13T02:03:45.813Z,78.27
2022-11-13T02:04:45.613Z,78.08
2022-11-13T02:05:45.527Z,78.37
2022-11-13T02:06:45.519Z,78.56
2022-11-13T02:07:45.355Z,78.65
2022-11-13T02:08:45.269Z,78.46
2022-11-13T02:09:45.184Z,78.27
2022-11-13T02:10:45.098Z,78.75
2022-11-13T02:11:45.013Z,78.37
2022-11-13T02:12:44.927Z,78.85
2022-11-13T02:13:44.840Z,79.13
2022-11-13T02:14:44.755Z,79.22
2022-11-13T02:15:44.671Z,79.41
2022-11-13T02:16:44.584Z,79.50
2022-11-13T02:17:44.497Z,79.41
2022-11-13T02:18:44.412Z,79.32
2022-11-13T02:19:44.439Z,79.88
2022-11-13T02:20:44.241Z,79.50
2022-11-13T02:21:44.155Z,79.69
2022-11-13T02:22:44.068Z,79.69
2022-11-13T02:23:43.984Z,79.60
2022-11-13T02:24:45.751Z,79.79
2022-11-13T02:25:43.809Z,79.69
2022-11-13T02:26:43.725Z,79.98
2022-11-13T02:27:43.653Z,79.69
2022-11-13T02:28:43.554Z,79.98
2022-11-13T02:29:43.469Z,80.17
2022-11-13T02:30:43.378Z,80.45
2022-11-13T02:31:43.296Z,80.17
2022-11-13T02:32:43.208Z,80.55
2022-11-13T02:33:43.123Z,80.45
2022-11-13T02:34:43.039Z,80.45
2022-11-13T02:35:43.067Z,80.17
2022-11-13T02:36:42.864Z,80.45
2022-11-13T02:37:42.778Z,80.45
2022-11-13T02:38:42.692Z,80.36
2022-11-13T02:39:42.610Z,80.17
2022-11-13T02:40:42.521Z,79.98
2022-11-13T02:41:42.435Z,80.55
2022-11-13T02:42:42.348Z,80.36
2022-11-13T02:43:42.267Z,80.83
2022-11-13T02:44:42.177Z,80.83
2022-11-13T02:45:42.091Z,80.55
2022-11-13T02:46:42.006Z,81.02
2022-11-13T02:47:41.921Z,81.12
2022-11-13T02:48:41.842Z,81.30
2022-11-13T02:49:41.751Z,81.40
2022-11-13T02:50:41.662Z,81.49
2022-11-13T02:51:41.691Z,81.30
2022-11-13T02:52:41.561Z,81.77
2022-11-13T02:53:41.402Z,81.59
2022-11-13T02:54:41.318Z,81.77
2022-11-13T02:55:41.232Z,81.87
2022-11-13T02:56:41.146Z,81.77
2022-11-13T02:57:41.059Z,81.77
2022-11-13T02:58:40.973Z,81.68
2022-11-13T02:59:40.888Z,82.06
2022-11-13T03:00:40.801Z,82.53
2022-11-13T03:01:40.763Z,82.53
2022-11-13T03:02:40.631Z,82.53
2022-11-13T03:03:57.206Z,82.53
2022-11-13T03:05:10.434Z,82.63
2022-11-13T03:05:40.368Z,82.06
2022-11-13T03:06:40.341Z,81.77
2022-11-13T03:07:40.318Z,81.96
2022-11-13T03:08:40.340Z,81.68
2022-11-13T03:09:40.173Z,81.77
2022-11-13T03:10:39.937Z,81.77
2022-11-13T03:11:39.852Z,81.21
2022-11-13T03:12:39.764Z,81.59
2022-11-13T03:13:39.679Z,81.40
2022-11-13T03:14:39.592Z,81.77
2022-11-13T03:15:39.510Z,81.68
2022-11-13T03:16:39.419Z,81.30
2022-11-13T03:17:39.334Z,81.87
2022-11-13T03:18:39.248Z,81.12
2022-11-13T03:19:39.161Z,81.59
2022-11-13T03:20:39.075Z,81.21
2022-11-13T03:21:38.987Z,81.30
2022-11-13T03:22:38.903Z,81.40
2022-11-13T03:23:38.931Z,81.40
2022-11-13T03:24:38.732Z,81.12
2022-11-13T03:25:38.643Z,81.12
2022-11-13T03:26:38.656Z,80.74
2022-11-13T03:27:38.472Z,80.93
2022-11-13T03:28:38.386Z,80.93
2022-11-13T03:29:38.303Z,80.93
2022-11-13T03:30:38.213Z,80.83
2022-11-13T03:31:38.127Z,80.64
2022-11-13T03:32:38.038Z,80.74
2022-11-13T03:33:37.955Z,80.64
2022-11-13T03:34:37.866Z,81.12
2022-11-13T03:35:44.209Z,81.30
2022-11-13T03:36:37.696Z,81.30
2022-11-13T03:37:37.609Z,81.02
2022-11-13T03:38:37.522Z,81.02
2022-11-13T03:39:37.550Z,81.21
2022-11-13T03:40:37.350Z,81.12
2022-11-13T03:41:37.263Z,81.30
2022-11-13T03:42:37.176Z,81.12
2022-11-13T03:43:37.091Z,80.74
2022-11-13T03:44:37.003Z,81.30
2022-11-13T03:45:36.917Z,81.49
2022-11-13T03:46:37.030Z,81.40
2022-11-13T03:47:36.744Z,81.49
2022-11-13T03:48:36.659Z,81.59
2022-11-13T03:49:36.571Z,81.77
2022-11-13T03:50:39.314Z,81.68
2022-11-13T03:51:36.400Z,81.30
2022-11-13T03:52:36.312Z,81.49
2022-11-13T03:53:36.226Z,81.12
2022-11-13T03:54:36.142Z,81.30
2022-11-13T03:55:36.167Z,81.87
2022-11-13T03:56:35.966Z,81.26
2022-11-13T03:57:35.880Z,81.17
2022-11-13T03:58:39.943Z,81.45
2022-11-13T03:59:35.709Z,81.17
2022-11-13T04:00:35.620Z,81.74
2022-11-13T04:01:35.565Z,81.74
2022-11-13T04:02:35.445Z,81.36
2022-11-13T04:03:35.411Z,81.55
2022-11-13T04:04:35.276Z,81.36
2022-11-13T04:05:35.187Z,81.17
2022-11-13T04:06:35.103Z,81.68
2022-11-13T04:07:35.015Z,81.30
2022-11-13T04:08:35.178Z,81.77
2022-11-13T04:09:34.841Z,81.40
2022-11-13T04:10:34.756Z,81.40
2022-11-13T04:11:34.783Z,81.21
2022-11-13T04:12:34.579Z,81.30
2022-11-13T04:13:34.494Z,81.74
2022-11-13T04:14:34.410Z,81.68
2022-11-13T04:15:34.322Z,81.64
2022-11-13T04:16:34.233Z,81.55
2022-11-13T04:17:34.148Z,81.17
2022-11-13T04:18:34.060Z,81.36
2022-11-13T04:19:33.977Z,81.55
2022-11-13T04:20:33.887Z,81.83
2022-11-13T04:21:33.804Z,81.83
2022-11-13T04:22:33.715Z,81.74
2022-11-13T04:23:33.631Z,81.83
2022-11-13T04:24:33.547Z,81.74
2022-11-13T04:25:33.455Z,81.55
2022-11-13T04:26:33.369Z,81.36
2022-11-13T04:27:33.396Z,81.17
2022-11-13T04:28:33.201Z,81.55
2022-11-13T04:29:33.107Z,81.55
2022-11-13T04:30:33.020Z,81.74
2022-11-13T04:31:32.937Z,81.74
2022-11-13T04:32:32.848Z,81.83
2022-11-13T04:33:32.763Z,81.74
2022-11-13T04:34:32.675Z,81.93
2022-11-13T04:35:32.590Z,81.45
2022-11-13T04:36:32.500Z,81.26
2022-11-13T04:37:32.417Z,81.74
2022-11-13T04:38:32.395Z,81.45
2022-11-13T04:39:32.243Z,81.83
2022-11-13T04:40:32.156Z,81.83
2022-11-13T04:41:32.071Z,81.74
2022-11-13T04:42:31.982Z,81.26
2022-11-13T04:43:32.006Z,81.55
2022-11-13T04:44:31.859Z,81.83
2022-11-13T04:45:31.720Z,82.31
2022-11-13T04:46:31.785Z,81.17
2022-11-13T04:47:31.546Z,81.36
2022-11-13T04:48:31.562Z,81.64
2022-11-13T04:49:31.373Z,81.74
2022-11-13T04:50:31.288Z,81.74
2022-11-13T04:51:31.203Z,81.93
2022-11-13T04:52:31.119Z,81.83
2022-11-13T04:53:31.026Z,82.02
2022-11-13T04:54:30.939Z,82.02
2022-11-13T04:55:30.855Z,82.21
2022-11-13T04:56:30.768Z,82.21
2022-11-13T04:57:30.683Z,82.50
2022-11-13T04:58:30.939Z,82.50
2022-11-13T04:59:30.616Z,82.50
2022-11-13T05:00:30.419Z,82.31
2022-11-13T05:01:30.457Z,82.59
2022-11-13T05:02:30.246Z,82.02
2022-11-13T05:03:30.159Z,81.93
2022-11-13T05:04:30.073Z,81.83
2022-11-13T05:05:29.982Z,81.55
2022-11-13T05:06:29.896Z,81.64
2022-11-13T05:07:29.813Z,81.74
2022-11-13T05:08:30.360Z,81.26
2022-11-13T05:09:29.637Z,81.96
2022-11-13T05:10:29.551Z,81.59
2022-11-13T05:11:29.464Z,81.21
2022-11-13T05:12:29.377Z,81.30
2022-11-13T05:13:29.290Z,81.30
2022-11-13T05:14:29.205Z,81.93
2022-11-13T05:15:29.230Z,81.74
2022-11-13T05:16:29.031Z,82.31
2022-11-13T05:17:28.942Z,82.21
2022-11-13T05:18:29.231Z,82.40
2022-11-13T05:19:28.771Z,82.78
2022-11-13T05:20:28.684Z,82.97
2022-11-13T05:21:28.598Z,82.97
2022-11-13T05:22:28.511Z,82.50
2022-11-13T05:23:28.425Z,83.15
2022-11-13T05:24:28.491Z,83.15
2022-11-13T05:25:28.294Z,83.15
2022-11-13T05:26:28.215Z,83.34
2022-11-13T05:27:28.075Z,82.97
2022-11-13T05:28:28.322Z,82.97
2022-11-13T05:29:27.902Z,82.68
2022-11-13T05:30:27.816Z,82.68
2022-11-13T05:31:27.842Z,82.68
2022-11-13T05:32:27.646Z,82.78
2022-11-13T05:33:27.554Z,82.50
2022-11-13T05:34:27.472Z,82.68
2022-11-13T05:35:27.380Z,82.97
2022-11-13T05:36:27.297Z,82.59
2022-11-13T05:37:27.208Z,82.59
2022-11-13T05:38:27.651Z,82.68
2022-11-13T05:39:27.034Z,82.97
2022-11-13T05:40:26.950Z,82.87
2022-11-13T05:41:26.859Z,82.97
2022-11-13T05:42:26.776Z,82.87
2022-11-13T05:43:26.688Z,82.87
2022-11-13T05:44:26.607Z,82.78
2022-11-13T05:45:26.513Z,82.68
2022-11-13T05:46:26.576Z,83.15
2022-11-13T05:47:26.453Z,83.53
2022-11-13T05:48:26.681Z,83.34
2022-11-13T05:49:26.166Z,83.25
2022-11-13T05:50:26.083Z,84.20
2022-11-13T05:51:26.002Z,83.91
2022-11-13T05:52:25.906Z,83.63
2022-11-13T05:53:25.818Z,84.10
2022-11-13T05:54:25.736Z,84.10
2022-11-13T05:55:25.646Z,83.82
2022-11-13T05:56:25.560Z,83.82
2022-11-13T05:57:25.472Z,83.72
2022-11-13T05:58:25.758Z,83.72
2022-11-13T05:59:25.297Z,83.72
2022-11-13T06:00:25.211Z,83.82
2022-11-13T06:01:25.125Z,83.91
2022-11-13T06:02:25.098Z,84.01
2022-11-13T06:03:25.064Z,83.72
2022-11-13T06:04:24.864Z,83.63
2022-11-13T06:05:24.776Z,84.01
2022-11-13T06:06:24.694Z,84.20
2022-11-13T06:07:24.604Z,84.58
2022-11-13T06:08:24.587Z,84.29
2022-11-13T06:09:24.430Z,84.29
2022-11-13T06:10:24.346Z,84.39
2022-11-13T06:11:24.258Z,84.20
2022-11-13T06:12:24.170Z,84.67
2022-11-13T06:13:24.082Z,84.77
2022-11-13T06:14:23.997Z,84.86
2022-11-13T06:15:23.909Z,84.86
2022-11-13T06:16:23.823Z,84.67
2022-11-13T06:17:23.733Z,84.77
2022-11-13T06:18:26.526Z,84.86
2022-11-13T06:19:23.677Z,84.86
2022-11-13T06:20:23.477Z,84.86
2022-11-13T06:21:23.386Z,84.67
2022-11-13T06:22:23.300Z,84.95
2022-11-13T06:23:23.214Z,85.05
2022-11-13T06:24:23.130Z,85.05
2022-11-13T06:25:23.039Z,85.33
2022-11-13T06:26:22.954Z,85.42
2022-11-13T06:27:22.869Z,85.42
2022-11-13T06:28:22.780Z,85.24
2022-11-13T06:29:22.692Z,85.24
2022-11-13T06:30:22.606Z,85.24
2022-11-13T06:31:22.520Z,85.33
2022-11-13T06:32:22.436Z,85.61
2022-11-13T06:33:22.345Z,85.61
2022-11-13T06:34:22.262Z,85.24
2022-11-13T06:35:22.435Z,85.71
2022-11-13T06:36:22.086Z,85.33
2022-11-13T06:37:21.995Z,85.42
2022-11-13T06:38:21.911Z,85.71
2022-11-13T06:39:21.902Z,85.71
2022-11-13T06:40:21.739Z,85.52
2022-11-13T06:41:21.650Z,85.52
2022-11-13T06:42:21.563Z,85.42
2022-11-13T06:43:21.476Z,86.09
2022-11-13T06:44:21.391Z,85.90
2022-11-13T06:45:21.302Z,85.61
2022-11-13T06:46:21.218Z,85.71
2022-11-13T06:47:21.129Z,85.42
2022-11-13T06:48:21.043Z,85.33
2022-11-13T06:49:20.955Z,85.33
2022-11-13T06:50:20.867Z,85.99
2022-11-13T06:51:20.903Z,85.61
2022-11-13T06:52:20.696Z,85.52
2022-11-13T06:53:20.758Z,85.52
2022-11-13T06:54:20.524Z,85.52
2022-11-13T06:55:20.433Z,85.61
2022-11-13T06:56:20.398Z,85.61
2022-11-13T06:57:20.261Z,85.61
2022-11-13T06:58:20.184Z,85.42
2022-11-13T06:59:20.134Z,85.61
2022-11-13T07:00:20.000Z,85.52
2022-11-13T07:01:20.032Z,85.99
2022-11-13T07:02:19.826Z,85.61
2022-11-13T07:03:19.737Z,85.71
2022-11-13T07:04:19.652Z,85.71
2022-11-13T07:05:19.563Z,85.71
2022-11-13T07:06:19.478Z,86.09
2022-11-13T07:07:19.676Z,85.42
2022-11-13T07:08:19.353Z,85.71
2022-11-13T07:09:19.217Z,85.71
2022-11-13T07:10:19.131Z,85.71
2022-11-13T07:11:19.042Z,86.28
2022-11-13T07:12:18.959Z,85.90
2022-11-13T07:13:18.874Z,86.28
2022-11-13T07:14:18.781Z,86.28
2022-11-13T07:15:18.696Z,86.09
2022-11-13T07:16:18.658Z,86.28
2022-11-13T07:17:18.520Z,86.94
2022-11-13T07:18:22.971Z,86.66
2022-11-13T07:19:18.345Z,86.94
2022-11-13T07:20:18.263Z,86.94
2022-11-13T07:21:18.172Z,86.85
2022-11-13T07:22:18.088Z,86.47
2022-11-13T07:23:18.159Z,86.94
2022-11-13T07:24:17.912Z,86.94
2022-11-13T07:25:17.825Z,87.04
2022-11-13T07:26:17.750Z,86.94
2022-11-13T07:27:17.650Z,87.13
2022-11-13T07:28:17.565Z,86.85
2022-11-13T07:29:17.479Z,86.75
2022-11-13T07:30:17.389Z,87.32
2022-11-13T07:31:17.304Z,87.51
2022-11-13T07:32:17.218Z,87.41
2022-11-13T07:33:17.277Z,87.51
2022-11-13T07:34:17.043Z,87.32
2022-11-13T07:35:16.962Z,87.13
2022-11-13T07:36:16.871Z,87.32
2022-11-13T07:37:16.782Z,87.32
2022-11-13T07:38:16.693Z,87.51
2022-11-13T07:39:16.722Z,87.41
2022-11-13T07:40:16.527Z,87.41
2022-11-13T07:41:16.435Z,87.32
2022-11-13T07:42:16.347Z,87.70
2022-11-13T07:43:16.259Z,87.70
2022-11-13T07:44:39.900Z,87.79
2022-11-13T07:45:16.085Z,87.88
2022-11-13T07:46:15.998Z,88.74
2022-11-13T07:47:16.112Z,88.17
2022-11-13T07:48:15.827Z,88.07
2022-11-13T07:49:15.748Z,88.40
2022-11-13T07:50:15.654Z,88.59
2022-11-13T07:51:15.566Z,88.40
2022-11-13T07:52:15.480Z,88.87
2022-11-13T07:53:15.391Z,89.40
2022-11-13T07:54:15.308Z,89.35
2022-11-13T07:55:15.329Z,89.06
2022-11-13T07:56:20.239Z,89.87
2022-11-13T07:57:15.046Z,89.69
2022-11-13T07:58:14.960Z,90.01
2022-11-13T07:59:14.873Z,90.20
2022-11-13T08:00:14.786Z,90.44
2022-11-13T08:01:14.746Z,90.67
2022-11-13T08:02:14.614Z,91.24
2022-11-13T08:03:14.533Z,90.77
2022-11-13T08:04:14.440Z,91.05
2022-11-13T08:05:14.353Z,90.96
2022-11-13T08:06:14.268Z,90.77
2022-11-13T08:07:14.341Z,90.77
2022-11-13T08:08:14.099Z,91.05
2022-11-13T08:09:14.008Z,91.05
2022-11-13T08:10:13.922Z,90.96
2022-11-13T08:11:13.948Z,90.77
2022-11-13T08:12:13.751Z,90.67
2022-11-13T08:13:13.660Z,91.15
2022-11-13T08:14:13.577Z,91.43
2022-11-13T08:15:13.771Z,91.62
2022-11-13T08:16:13.402Z,92.00
2022-11-13T08:17:13.367Z,91.81
2022-11-13T08:18:13.229Z,92.38
2022-11-13T08:19:13.144Z,92.29
2022-11-13T08:20:13.058Z,92.47
2022-11-13T08:21:15.078Z,92.38
2022-11-13T08:22:12.885Z,92.47
2022-11-13T08:23:12.798Z,92.47
2022-11-13T08:24:12.714Z,92.29
2022-11-13T08:25:12.626Z,92.29
2022-11-13T08:26:12.544Z,92.66
2022-11-13T08:27:12.575Z,92.38
2022-11-13T08:28:13.464Z,92.47
2022-11-13T08:29:12.290Z,92.85
2022-11-13T08:30:12.196Z,92.76
2022-11-13T08:31:12.118Z,93.23
2022-11-13T08:32:12.024Z,93.04
2022-11-13T08:33:11.936Z,92.66
2022-11-13T08:34:11.854Z,92.43
2022-11-13T08:35:17.399Z,92.24
2022-11-13T08:36:11.683Z,91.95
2022-11-13T08:37:11.595Z,92.52
2022-11-13T08:38:11.508Z,92.33
2022-11-13T08:39:11.422Z,92.61
2022-11-13T08:40:11.338Z,92.80
2022-11-13T08:41:11.250Z,92.33
2022-11-13T08:42:11.165Z,93.18
2022-11-13T08:43:11.189Z,93.46
2022-11-13T08:44:10.995Z,93.75
2022-11-13T08:45:10.908Z,93.27
2022-11-13T08:46:10.821Z,93.46
2022-11-13T08:47:10.737Z,93.27
2022-11-13T08:48:10.651Z,93.08
2022-11-13T08:49:10.564Z,93.46
2022-11-13T08:50:10.503Z,93.08
2022-11-13T08:51:10.449Z,93.37
2022-11-13T08:52:10.367Z,93.27
2022-11-13T08:53:10.273Z,93.32
2022-11-13T08:54:10.137Z,93.89
2022-11-13T08:55:10.115Z,93.51
2022-11-13T08:56:10.035Z,93.42
2022-11-13T08:57:09.950Z,93.32
2022-11-13T08:58:09.894Z,93.70
2022-11-13T08:59:09.892Z,94.18
2022-11-13T09:00:09.710Z,94.65
2022-11-13T09:01:09.574Z,94.74
2022-11-13T09:02:09.457Z,94.37
2022-11-13T09:03:09.424Z,94.37
2022-11-13T09:04:09.411Z,94.46
2022-11-13T09:05:09.200Z,94.46
2022-11-13T09:06:09.117Z,94.37
2022-11-13T09:07:09.086Z,94.37
2022-11-13T09:08:08.950Z,94.65
2022-11-13T09:09:08.862Z,94.74
2022-11-13T09:10:08.775Z,94.93
2022-11-13T09:11:08.690Z,95.26
2022-11-13T09:12:08.609Z,94.89
2022-11-13T09:13:08.522Z,95.07
2022-11-13T09:14:08.437Z,95.17
2022-11-13T09:15:08.467Z,95.45
2022-11-13T09:16:08.268Z,96.12
2022-11-13T09:17:08.184Z,96.03
2022-11-13T09:18:08.106Z,96.50
2022-11-13T09:19:08.115Z,96.50
2022-11-13T09:20:11.309Z,96.88
2022-11-13T09:21:07.846Z,97.64
2022-11-13T09:22:07.761Z,97.64
2022-11-13T09:23:07.677Z,98.21
2022-11-13T09:24:07.594Z,98.58
2022-11-13T09:25:07.511Z,98.92
2022-11-13T09:26:07.425Z,99.01
2022-11-13T09:27:07.342Z,98.82
2022-11-13T09:28:07.268Z,99.68
2022-11-13T09:29:07.175Z,98.73
2022-11-13T09:30:07.090Z,99.68
2022-11-13T09:31:07.123Z,99.99
2022-11-13T09:32:06.923Z,99.99
2022-11-13T09:33:06.841Z,99.99
2022-11-13T09:34:06.758Z,99.99
2022-11-13T09:35:06.675Z,99.99
2022-11-13T09:36:06.590Z,99.99
2022-11-13T09:37:06.507Z,99.99
2022-11-13T09:38:11.019Z,99.99
2022-11-13T09:39:06.343Z,99.99
2022-11-13T09:40:06.256Z,99.99
2022-11-13T09:41:06.173Z,99.99
2022-11-13T09:42:06.089Z,99.99
2022-11-13T09:43:06.008Z,99.99
2022-11-13T09:44:05.929Z,99.99
2022-11-13T09:45:05.842Z,99.99
2022-11-13T09:46:05.757Z,99.99
2022-11-13T09:47:05.791Z,99.99
2022-11-13T09:48:05.591Z,99.99
2022-11-13T09:49:05.509Z,99.99
2022-11-13T09:50:05.473Z,99.99
2022-11-13T09:51:05.344Z,99.99
2022-11-13T09:52:06.795Z,99.99
2022-11-13T09:53:05.179Z,99.99
2022-11-13T09:54:05.093Z,99.99
2022-11-13T09:55:05.014Z,99.99
2022-11-13T09:56:04.928Z,99.99
2022-11-13T09:57:04.847Z,99.99
2022-11-13T09:58:04.763Z,99.99
2022-11-13T09:59:04.681Z,99.99
2022-11-13T10:00:04.602Z,99.99
2022-11-13T10:01:04.584Z,99.99
2022-11-13T10:02:04.436Z,99.99
2022-11-13T10:03:04.462Z,99.99
2022-11-13T10:04:04.691Z,99.99
2022-11-13T10:05:04.193Z,99.99
2022-11-13T10:06:04.104Z,99.99
2022-11-13T10:07:04.163Z,99.99
2022-11-13T10:08:03.939Z,99.99
2022-11-13T10:09:03.858Z,99.99
2022-11-13T10:10:03.776Z,99.99
2022-11-13T10:11:03.696Z,99.99
2022-11-13T10:12:03.610Z,99.99
2022-11-13T10:13:03.531Z,99.99
2022-11-13T10:14:03.446Z,99.99
2022-11-13T10:15:03.366Z,99.99
2022-11-13T10:16:03.339Z,99.99
2022-11-13T10:17:03.226Z,99.99
2022-11-13T10:18:03.118Z,99.99
2022-11-13T10:19:03.159Z,99.99
2022-11-13T10:20:02.955Z,99.99
2022-11-13T10:21:08.293Z,99.99
2022-11-13T10:22:31.098Z,99.99
2022-11-13T10:23:02.711Z,99.99
2022-11-13T10:24:02.633Z,99.99
2022-11-13T10:25:02.548Z,99.99
2022-11-13T10:26:02.466Z,99.99
2022-11-13T10:27:02.441Z,99.99
2022-11-13T10:28:15.927Z,99.99
2022-11-13T10:29:02.290Z,99.99
2022-11-13T10:30:02.144Z,99.99
2022-11-13T10:31:02.064Z,99.99
2022-11-13T10:32:01.985Z,99.99
2022-11-13T10:33:01.914Z,99.99
2022-11-13T10:34:01.821Z,99.99
2022-11-13T10:35:01.850Z,99.99
2022-11-13T10:36:01.662Z,99.99
2022-11-13T10:37:01.714Z,99.99
2022-11-13T10:38:06.604Z,99.99
2022-11-13T10:39:01.425Z,99.99
2022-11-13T10:40:01.345Z,99.99
2022-11-13T10:41:01.262Z,99.99
2022-11-13T10:42:01.183Z,99.99
2022-11-13T10:43:01.107Z,99.99
2022-11-13T10:44:01.026Z,99.99
2022-11-13T10:45:00.950Z,99.99
2022-11-13T10:46:00.870Z,99.99
2022-11-13T10:47:00.856Z,99.99
2022-11-13T10:48:05.188Z,99.99
2022-11-13T10:49:00.633Z,99.99
2022-11-13T10:50:00.557Z,99.99
2022-11-13T10:51:00.589Z,99.99
2022-11-13T10:52:00.401Z,99.99
2022-11-13T10:53:00.322Z,99.99
2022-11-13T10:54:00.244Z,99.99
2022-11-13T10:55:00.194Z,99.99
2022-11-13T10:56:00.090Z,99.99
2022-11-13T10:57:00.304Z,99.99
2022-11-13T10:57:59.932Z,99.99
2022-11-13T10:58:59.849Z,99.99
2022-11-13T10:59:59.771Z,99.99
2022-11-13T11:00:59.785Z,99.99
2022-11-13T11:01:59.615Z,99.99
2022-11-13T11:02:59.535Z,99.99
2022-11-13T11:03:59.454Z,99.99
2022-11-13T11:04:59.377Z,99.99
2022-11-13T11:05:59.295Z,99.99
2022-11-13T11:07:19.791Z,99.99
2022-11-13T11:07:59.212Z,99.99
2022-11-13T11:08:59.065Z,99.99
2022-11-13T11:09:58.982Z,99.99
2022-11-13T11:10:58.904Z,99.99
2022-11-13T11:11:58.826Z,99.99
2022-11-13T11:12:58.744Z,99.99
2022-11-13T11:13:58.664Z,99.99
2022-11-13T11:14:58.598Z,99.99
2022-11-13T11:15:58.509Z,99.99
2022-11-13T11:16:58.494Z,99.99
2022-11-13T11:17:58.349Z,99.99
2022-11-13T11:18:58.271Z,99.99
2022-11-13T11:19:58.195Z,99.99
2022-11-13T11:20:58.115Z,99.99
2022-11-13T11:21:58.034Z,99.99
2022-11-13T11:22:58.073Z,99.99
2022-11-13T11:23:57.879Z,99.99
2022-11-13T11:24:57.804Z,99.99
2022-11-13T11:25:57.842Z,99.99
2022-11-13T11:26:57.729Z,99.99
2022-11-13T11:27:57.573Z,99.99
2022-11-13T11:28:57.493Z,99.99
2022-11-13T11:29:57.418Z,99.99
2022-11-13T11:30:57.345Z,99.99
2022-11-13T11:31:57.265Z,99.99
2022-11-13T11:32:57.192Z,99.99
2022-11-13T11:33:57.115Z,99.99
2022-11-13T11:34:59.288Z,99.99
2022-11-13T11:35:56.965Z,99.99
2022-11-13T11:36:56.890Z,99.99
2022-11-13T11:37:56.813Z,99.99
2022-11-13T11:38:59.477Z,99.99
2022-11-13T11:39:56.665Z,99.99
2022-11-13T11:40:56.590Z,99.99
2022-11-13T11:41:56.515Z,99.99
2022-11-13T11:42:56.443Z,99.99
2022-11-13T11:44:43.857Z,99.99
2022-11-13T11:45:43.788Z,99.99
2022-11-13T11:46:46.669Z,99.99
2022-11-13T11:47:43.643Z,99.99
2022-11-13T11:50:18.800Z,99.99
2022-11-13T11:51:18.729Z,99.99
2022-11-13T11:52:18.653Z,99.99
2022-11-13T11:53:18.583Z,99.99
2022-11-13T11:54:18.638Z,99.99
2022-11-13T11:55:18.442Z,99.99
2022-11-13T11:56:18.369Z,97.18
2022-11-13T11:57:18.299Z,91.82
2022-11-13T11:58:18.227Z,83.29
2022-11-13T11:59:18.158Z,86.54
2022-11-13T12:00:18.084Z,85.58
2022-11-13T12:01:18.015Z,83.60
2022-11-13T12:02:17.993Z,87.19
2022-11-13T12:03:17.872Z,82.40
2022-11-13T12:04:17.803Z,78.17
